Time;durP1;ratioP1;P1;durP2;ratioP2;P2;SDS_P1;SDS_P2;PMS_P1;PMS_P2;Temp;Humidity;BMP_temperature;BMP_pressure;BME280_temperature;BME280_humidity;BME280_pressure;Samples;Min_cycle;Max_cycle;Signal;HPM_P1;HPM_P2
2022/11/02 00:01:15;;;;;;;8.47;4.30;;;;;;;;;;5050764;28;20217;-77
2022/11/02 00:03:41;;;;;;;9.97;4.27;;;;;;;;;;5049940;28;20217;-78
2022/11/02 00:06:08;;;;;;;6.43;4.53;;;;;;;;;;5050321;28;20217;-78
2022/11/02 00:08:35;;;;;;;3.63;3.33;;;;;;;;;;5050585;28;20206;-77
2022/11/02 00:11:02;;;;;;;3.30;2.97;;;;;;;;;;5050078;28;20198;-77
2022/11/02 00:13:28;;;;;;;6.23;3.60;;;;;;;;;;5051039;28;20275;-77
2022/11/02 00:15:57;;;;;;;4.80;3.70;;;;;;;;;;5050534;28;20572;-77
2022/11/02 00:18:23;;;;;;;9.43;4.10;;;;;;;;;;5050423;28;20206;-77
2022/11/02 00:20:50;;;;;;;3.80;3.10;;;;;;;;;;5050207;28;20209;-78
2022/11/02 00:23:17;;;;;;;5.60;4.13;;;;;;;;;;5050849;28;20202;-78
2022/11/02 00:25:46;;;;;;;5.73;4.23;;;;;;;;;;5049698;28;20586;-78
2022/11/02 00:28:14;;;;;;;7.10;4.60;;;;;;;;;;5050581;28;20202;-77
2022/11/02 00:30:40;;;;;;;4.20;3.80;;;;;;;;;;5050412;28;20689;-78
2022/11/02 00:33:09;;;;;;;6.80;4.00;;;;;;;;;;5050580;28;20217;-78
2022/11/02 00:35:36;;;;;;;7.30;3.70;;;;;;;;;;5050287;28;20232;-77
2022/11/02 00:38:03;;;;;;;9.37;4.60;;;;;;;;;;5049893;28;20198;-78
2022/11/02 00:40:29;;;;;;;4.27;3.67;;;;;;;;;;5050094;28;20210;-78
2022/11/02 00:42:56;;;;;;;4.40;3.57;;;;;;;;;;5049935;28;20223;-78
2022/11/02 00:45:23;;;;;;;8.83;4.23;;;;;;;;;;5050140;28;20233;-77
2022/11/02 00:47:50;;;;;;;3.90;3.60;;;;;;;;;;5050071;28;20378;-78
2022/11/02 00:50:18;;;;;;;6.47;3.47;;;;;;;;;;5050058;28;20642;-78
2022/11/02 00:52:45;;;;;;;7.13;4.07;;;;;;;;;;5049756;28;21154;-78
2022/11/02 00:55:13;;;;;;;5.13;3.70;;;;;;;;;;5049909;28;20687;-77
2022/11/02 00:57:41;;;;;;;7.30;4.23;;;;;;;;;;5050372;28;20301;-78
2022/11/02 01:00:09;;;;;;;4.27;3.23;;;;;;;;;;5050045;28;20213;-77
2022/11/02 01:02:36;;;;;;;6.20;4.50;;;;;;;;;;5050034;28;20659;-77
2022/11/02 01:05:03;;;;;;;5.20;3.80;;;;;;;;;;5049357;28;20298;-78
2022/11/02 01:07:31;;;;;;;4.83;4.33;;;;;;;;;;5049823;28;20224;-77
2022/11/02 01:09:58;;;;;;;8.67;4.43;;;;;;;;;;5049771;28;20216;-78
2022/11/02 01:12:25;;;;;;;3.83;3.47;;;;;;;;;;5049851;28;20240;-78
2022/11/02 01:14:52;;;;;;;6.30;3.90;;;;;;;;;;5051580;28;20194;-78
2022/11/02 01:17:19;;;;;;;6.00;4.63;;;;;;;;;;5053643;28;20213;-78
2022/11/02 01:19:46;;;;;;;6.83;4.23;;;;;;;;;;5052871;28;20668;-78
2022/11/02 01:22:13;;;;;;;5.23;3.87;;;;;;;;;;5054014;28;20208;-78
2022/11/02 01:24:41;;;;;;;4.47;3.57;;;;;;;;;;5053507;28;20229;-77
2022/11/02 01:27:08;;;;;;;7.40;3.27;;;;;;;;;;5053829;28;20260;-78
2022/11/02 01:29:34;;;;;;;5.37;4.20;;;;;;;;;;5053092;28;20198;-78
2022/11/02 01:32:01;;;;;;;4.27;3.57;;;;;;;;;;5053526;28;20202;-78
2022/11/02 01:34:28;;;;;;;4.10;3.70;;;;;;;;;;5052830;28;20208;-78
2022/11/02 01:36:54;;;;;;;5.67;4.17;;;;;;;;;;5053495;28;20201;-78
2022/11/02 01:39:22;;;;;;;6.30;4.23;;;;;;;;;;5052967;28;20248;-78
2022/11/02 01:41:52;;;;;;;4.93;4.03;;;;;;;;;;5053366;28;20220;-77
2022/11/02 01:44:30;;;;;;;4.10;3.77;;;;;;;;;;5053401;28;20252;-78
2022/11/02 01:47:00;;;;;;;5.60;4.83;;;;;;;;;;5052729;28;20201;-78
2022/11/02 01:49:27;;;;;;;4.63;3.67;;;;;;;;;;5052963;28;20209;-78
2022/11/02 01:51:57;;;;;;;9.57;4.20;;;;;;;;;;5052753;28;20234;-78
2022/11/02 01:54:26;;;;;;;7.23;3.80;;;;;;;;;;5053049;28;20240;-78
2022/11/02 01:56:57;;;;;;;4.90;3.97;;;;;;;;;;5052918;28;20680;-78
2022/11/02 01:59:28;;;;;;;5.90;4.23;;;;;;;;;;5052415;28;20200;-78
2022/11/02 02:01:55;;;;;;;6.50;3.37;;;;;;;;;;5052838;28;20216;-78
2022/11/02 02:04:23;;;;;;;4.70;3.30;;;;;;;;;;5052657;28;20225;-78
2022/11/02 02:06:50;;;;;;;4.00;3.60;;;;;;;;;;5053020;28;20225;-78
2022/11/02 02:09:18;;;;;;;3.67;3.37;;;;;;;;;;5052227;28;20213;-78
2022/11/02 02:11:44;;;;;;;2.90;2.70;;;;;;;;;;5052448;28;20688;-78
2022/11/02 02:14:15;;;;;;;6.47;4.20;;;;;;;;;;5052583;28;20201;-78
2022/11/02 02:17:02;;;;;;;5.27;3.33;;;;;;;;;;5052805;28;20628;-77
2022/11/02 02:19:37;;;;;;;5.37;3.20;;;;;;;;;;5052129;28;20232;-78
2022/11/02 02:22:32;;;;;;;5.33;3.40;;;;;;;;;;5052287;28;20208;-78
2022/11/02 02:25:15;;;;;;;4.73;3.17;;;;;;;;;;5049885;28;20287;-78
2022/11/02 02:27:55;;;;;;;5.07;3.27;;;;;;;;;;5051825;28;20202;-78
2022/11/02 02:30:22;;;;;;;5.40;3.57;;;;;;;;;;5052256;28;20745;-78
2022/11/02 02:32:52;;;;;;;5.40;3.80;;;;;;;;;;5052264;28;20271;-78
2022/11/02 02:35:25;;;;;;;5.10;4.60;;;;;;;;;;5052173;28;20214;-78
2022/11/02 02:37:55;;;;;;;8.40;5.10;;;;;;;;;;5051969;28;20201;-78
2022/11/02 02:40:26;;;;;;;9.50;3.20;;;;;;;;;;5052029;28;20205;-78
2022/11/02 02:42:56;;;;;;;5.50;3.37;;;;;;;;;;5052090;28;20593;-78
2022/11/02 02:45:26;;;;;;;6.77;4.00;;;;;;;;;;5051617;28;20233;-78
2022/11/02 02:47:59;;;;;;;5.37;3.50;;;;;;;;;;5051738;28;20201;-78
2022/11/02 02:50:28;;;;;;;5.73;3.80;;;;;;;;;;5051885;28;20204;-78
2022/11/02 02:52:57;;;;;;;9.10;3.43;;;;;;;;;;5051727;28;20201;-78
2022/11/02 02:55:30;;;;;;;7.27;3.27;;;;;;;;;;5051704;28;20209;-78
2022/11/02 02:58:00;;;;;;;5.27;3.77;;;;;;;;;;5051856;28;20266;-78
2022/11/02 03:00:27;;;;;;;5.00;3.50;;;;;;;;;;5051688;28;20190;-78
2022/11/02 03:03:00;;;;;;;8.67;3.80;;;;;;;;;;5051509;28;20205;-78
2022/11/02 03:05:30;;;;;;;4.40;3.70;;;;;;;;;;5051380;28;20253;-78
2022/11/02 03:08:01;;;;;;;7.87;3.67;;;;;;;;;;5051779;28;20196;-78
2022/11/02 03:10:32;;;;;;;5.17;3.60;;;;;;;;;;5051184;28;20698;-78
2022/11/02 03:13:08;;;;;;;6.40;3.93;;;;;;;;;;5051342;28;20198;-78
2022/11/02 03:15:37;;;;;;;5.07;3.60;;;;;;;;;;5051590;28;20213;-78
2022/11/02 03:18:11;;;;;;;5.13;3.53;;;;;;;;;;5051534;28;20277;-78
2022/11/02 03:20:44;;;;;;;4.60;3.23;;;;;;;;;;5050823;28;20217;-78
2022/11/02 03:23:14;;;;;;;4.23;3.33;;;;;;;;;;5051207;28;20198;-78
2022/11/02 03:25:51;;;;;;;5.43;3.40;;;;;;;;;;5051115;28;20230;-78
2022/11/02 03:28:25;;;;;;;6.97;3.53;;;;;;;;;;5051611;28;20204;-78
2022/11/02 03:30:55;;;;;;;4.30;3.90;;;;;;;;;;5050988;28;20255;-78
2022/11/02 03:33:26;;;;;;;7.83;3.80;;;;;;;;;;5050355;28;20213;-78
2022/11/02 03:35:57;;;;;;;6.13;3.30;;;;;;;;;;5049762;28;20616;-77
2022/11/02 03:38:26;;;;;;;3.60;3.30;;;;;;;;;;5049500;28;20212;-77
2022/11/02 03:40:55;;;;;;;4.97;3.00;;;;;;;;;;5049527;28;20254;-77
2022/11/02 03:43:24;;;;;;;6.83;4.17;;;;;;;;;;5050627;28;20193;-77
2022/11/02 03:45:52;;;;;;;6.70;5.60;;;;;;;;;;5049712;28;20429;-77
2022/11/02 03:48:20;;;;;;;8.03;7.00;;;;;;;;;;5043322;28;20770;-77
2022/11/02 03:50:49;;;;;;;5.00;4.40;;;;;;;;;;5030459;28;20248;-77
2022/11/02 03:53:19;;;;;;;7.60;4.20;;;;;;;;;;5047828;28;20208;-77
2022/11/02 03:55:49;;;;;;;4.37;3.40;;;;;;;;;;5050744;28;20205;-77
2022/11/02 03:58:16;;;;;;;6.17;3.20;;;;;;;;;;5050562;28;20202;-77
2022/11/02 04:00:48;;;;;;;5.73;3.53;;;;;;;;;;5050604;28;20206;-77
2022/11/02 04:03:15;;;;;;;5.17;3.83;;;;;;;;;;5050791;28;20240;-77
2022/11/02 04:05:42;;;;;;;3.97;3.33;;;;;;;;;;5050013;28;20229;-78
2022/11/02 04:08:21;;;;;;;4.63;3.60;;;;;;;;;;5050773;28;20636;-78
2022/11/02 04:16:18;;;;;;;6.07;4.73;;;;;;;;;;5050311;28;20213;-80
2022/11/02 04:21:29;;;;;;;5.67;4.77;;;;;;;;;;5050537;28;20215;-79
2022/11/02 04:26:41;;;;;;;4.03;3.57;;;;;;;;;;5050227;28;20349;-80
2022/11/02 04:29:08;;;;;;;7.53;3.77;;;;;;;;;;5050314;28;20259;-82
2022/11/02 04:31:36;;;;;;;3.43;3.13;;;;;;;;;;5049541;28;20198;-77
2022/11/02 04:34:01;;;;;;;3.97;3.53;;;;;;;;;;5050064;28;20201;-81
2022/11/02 04:36:29;;;;;;;6.97;3.17;;;;;;;;;;5050295;28;20208;-81
2022/11/02 04:38:55;;;;;;;5.33;3.13;;;;;;;;;;5050408;28;20194;-81
2022/11/02 04:41:41;;;;;;;6.17;3.93;;;;;;;;;;5050113;28;20578;-81
2022/11/02 04:44:09;;;;;;;3.90;3.20;;;;;;;;;;5041823;28;20280;-82
2022/11/02 04:46:38;;;;;;;4.13;3.70;;;;;;;;;;5049640;28;20689;-83
2022/11/02 04:49:05;;;;;;;4.10;3.70;;;;;;;;;;5050342;28;20214;-83
2022/11/02 04:51:32;;;;;;;7.43;5.03;;;;;;;;;;5053517;28;20201;-83
2022/11/02 04:54:00;;;;;;;5.50;5.00;;;;;;;;;;5053657;28;20264;-83
2022/11/02 04:56:27;;;;;;;13.00;4.13;;;;;;;;;;5053298;28;20279;-83
2022/11/02 04:58:55;;;;;;;5.50;4.30;;;;;;;;;;5053526;28;20205;-83
2022/11/02 05:01:24;;;;;;;4.57;3.47;;;;;;;;;;5053917;28;20567;-83
2022/11/02 05:03:53;;;;;;;6.20;4.40;;;;;;;;;;5053687;28;20316;-81
2022/11/02 05:06:21;;;;;;;5.20;4.70;;;;;;;;;;5053197;28;20276;-81
2022/11/02 05:08:48;;;;;;;6.03;5.43;;;;;;;;;;5053476;28;20200;-82
2022/11/02 05:11:15;;;;;;;8.23;5.50;;;;;;;;;;5051910;28;20256;-82
2022/11/02 05:13:43;;;;;;;6.73;5.27;;;;;;;;;;5050987;28;20214;-82
2022/11/02 05:16:11;;;;;;;8.27;5.73;;;;;;;;;;5053131;28;20206;-82
2022/11/02 05:18:38;;;;;;;5.83;3.63;;;;;;;;;;5052372;28;20204;-83
2022/11/02 05:21:07;;;;;;;5.63;4.13;;;;;;;;;;5053740;28;20707;-83
2022/11/02 05:23:33;;;;;;;8.17;3.97;;;;;;;;;;5053510;28;20206;-82
2022/11/02 05:26:02;;;;;;;4.73;3.90;;;;;;;;;;5053636;28;20231;-83
2022/11/02 05:28:30;;;;;;;5.47;4.13;;;;;;;;;;5053474;28;20628;-82
2022/11/02 05:30:58;;;;;;;4.77;3.23;;;;;;;;;;5052773;28;20199;-82
2022/11/02 05:33:25;;;;;;;4.17;3.77;;;;;;;;;;5053167;28;20205;-82
2022/11/02 05:35:54;;;;;;;6.33;3.53;;;;;;;;;;5039189;28;20198;-82
2022/11/02 05:38:22;;;;;;;6.00;2.73;;;;;;;;;;5052782;28;20206;-83
2022/11/02 05:40:52;;;;;;;3.47;3.13;;;;;;;;;;5053444;28;20197;-83
2022/11/02 05:43:19;;;;;;;4.27;3.10;;;;;;;;;;5053425;28;20214;-84
2022/11/02 05:45:51;;;;;;;4.53;3.13;;;;;;;;;;5052986;28;20197;-83
2022/11/02 05:48:18;;;;;;;5.73;3.27;;;;;;;;;;5053436;28;20202;-83
2022/11/02 05:50:45;;;;;;;3.87;3.23;;;;;;;;;;5052805;28;20734;-84
2022/11/02 05:53:12;;;;;;;6.60;3.40;;;;;;;;;;5053125;28;20201;-83
2022/11/02 05:55:40;;;;;;;5.23;3.73;;;;;;;;;;5053271;28;20267;-83
2022/11/02 05:58:06;;;;;;;5.57;3.03;;;;;;;;;;5052890;28;20198;-83
2022/11/02 06:00:33;;;;;;;4.73;3.60;;;;;;;;;;5051597;28;20783;-84
2022/11/02 06:03:00;;;;;;;5.40;3.20;;;;;;;;;;5052768;28;20246;-84
2022/11/02 06:05:27;;;;;;;3.17;2.87;;;;;;;;;;5052768;28;20202;-83
2022/11/02 06:07:58;;;;;;;3.53;3.20;;;;;;;;;;5053000;28;20232;-82
2022/11/02 06:10:25;;;;;;;7.70;3.10;;;;;;;;;;5053081;28;20202;-82
2022/11/02 06:12:56;;;;;;;5.03;3.27;;;;;;;;;;5053052;28;20213;-83
2022/11/02 06:15:24;;;;;;;9.07;3.43;;;;;;;;;;5052905;28;20602;-84
2022/11/02 06:17:51;;;;;;;4.57;2.77;;;;;;;;;;5052551;28;20630;-83
2022/11/02 06:20:18;;;;;;;5.20;3.33;;;;;;;;;;5052314;28;20234;-83
2022/11/02 06:22:45;;;;;;;3.93;2.97;;;;;;;;;;5052698;28;20669;-83
2022/11/02 06:25:12;;;;;;;5.37;3.50;;;;;;;;;;5052807;28;20206;-84
2022/11/02 06:27:40;;;;;;;6.70;2.77;;;;;;;;;;5054046;28;20229;-84
2022/11/02 06:30:10;;;;;;;8.87;4.50;;;;;;;;;;5057186;28;20643;-84
2022/11/02 06:32:36;;;;;;;6.10;4.80;;;;;;;;;;5051445;28;20585;-83
2022/11/02 06:35:03;;;;;;;8.80;4.57;;;;;;;;;;5055620;28;20317;-82
2022/11/02 06:37:33;;;;;;;8.20;4.40;;;;;;;;;;5044215;28;20199;-82
2022/11/02 06:40:00;;;;;;;6.17;4.20;;;;;;;;;;5055492;28;20206;-82
2022/11/02 06:42:27;;;;;;;12.70;4.80;;;;;;;;;;5054696;28;20294;-82
2022/11/02 06:44:54;;;;;;;7.80;4.13;;;;;;;;;;5055535;28;20211;-83
2022/11/02 06:47:22;;;;;;;7.10;4.33;;;;;;;;;;5056663;28;20234;-83
2022/11/02 06:49:50;;;;;;;5.27;4.13;;;;;;;;;;5054584;28;20206;-83
2022/11/02 06:52:17;;;;;;;7.33;4.40;;;;;;;;;;5056458;28;20299;-83
2022/11/02 06:54:44;;;;;;;9.47;4.83;;;;;;;;;;5056487;28;20265;-83
2022/11/02 06:57:10;;;;;;;10.00;4.23;;;;;;;;;;5056633;28;20199;-83
2022/11/02 06:59:37;;;;;;;11.97;4.63;;;;;;;;;;5054520;28;20211;-83
2022/11/02 07:02:04;;;;;;;10.43;4.30;;;;;;;;;;5055197;28;20208;-83
2022/11/02 07:04:32;;;;;;;6.00;3.53;;;;;;;;;;5055822;28;20612;-83
2022/11/02 07:06:59;;;;;;;5.43;3.87;;;;;;;;;;5054969;28;20278;-83
2022/11/02 07:09:26;;;;;;;6.73;3.60;;;;;;;;;;5042300;28;20212;-82
2022/11/02 07:11:52;;;;;;;5.90;4.27;;;;;;;;;;5055419;28;20208;-83
2022/11/02 07:14:19;;;;;;;7.77;3.90;;;;;;;;;;5054809;28;20216;-82
2022/11/02 07:16:46;;;;;;;7.63;3.87;;;;;;;;;;5053960;28;20610;-83
2022/11/02 07:19:13;;;;;;;9.10;3.63;;;;;;;;;;5053082;28;20213;-83
2022/11/02 07:21:41;;;;;;;9.13;3.57;;;;;;;;;;5052638;28;20582;-82
2022/11/02 07:24:08;;;;;;;9.37;4.77;;;;;;;;;;5052850;28;20614;-82
2022/11/02 07:26:34;;;;;;;7.97;3.80;;;;;;;;;;5052637;28;20232;-82
2022/11/02 07:29:01;;;;;;;5.70;3.60;;;;;;;;;;5053487;28;20209;-82
2022/11/02 07:31:28;;;;;;;9.77;3.63;;;;;;;;;;5053358;28;20626;-82
2022/11/02 07:33:55;;;;;;;8.13;4.03;;;;;;;;;;5053181;28;20202;-82
2022/11/02 07:36:21;;;;;;;10.17;3.27;;;;;;;;;;5052845;28;20677;-83
2022/11/02 07:38:49;;;;;;;5.23;3.70;;;;;;;;;;5053473;28;20205;-83
2022/11/02 07:41:16;;;;;;;10.37;3.70;;;;;;;;;;5052616;28;20217;-83
2022/11/02 07:43:43;;;;;;;10.07;3.10;;;;;;;;;;5052953;28;20205;-83
2022/11/02 07:46:10;;;;;;;6.50;3.07;;;;;;;;;;5051837;28;20688;-82
2022/11/02 07:48:37;;;;;;;6.57;4.23;;;;;;;;;;5050758;28;20204;-82
2022/11/02 07:51:04;;;;;;;6.13;3.77;;;;;;;;;;5050412;28;20202;-82
2022/11/02 07:53:31;;;;;;;5.03;2.90;;;;;;;;;;5050419;28;20209;-82
2022/11/02 07:56:01;;;;;;;4.23;3.17;;;;;;;;;;5050422;28;20201;-82
2022/11/02 07:58:28;;;;;;;3.20;2.43;;;;;;;;;;5050762;28;20680;-82
2022/11/02 08:00:57;;;;;;;5.63;3.17;;;;;;;;;;5036396;28;20190;-83
2022/11/02 08:03:24;;;;;;;4.63;2.97;;;;;;;;;;5050676;28;20234;-82
2022/11/02 08:05:51;;;;;;;4.97;2.60;;;;;;;;;;5050063;28;20650;-82
2022/11/02 08:08:19;;;;;;;4.60;2.83;;;;;;;;;;5050075;28;20233;-83
2022/11/02 08:10:47;;;;;;;4.53;3.03;;;;;;;;;;5050117;28;20248;-82
2022/11/02 08:13:17;;;;;;;5.90;2.67;;;;;;;;;;5050460;28;20201;-82
2022/11/02 08:15:44;;;;;;;4.13;3.00;;;;;;;;;;5050038;28;20205;-82
2022/11/02 08:18:14;;;;;;;4.00;3.20;;;;;;;;;;5050772;28;20229;-82
2022/11/02 08:20:41;;;;;;;10.73;3.37;;;;;;;;;;5049879;28;20193;-82
2022/11/02 08:23:09;;;;;;;4.47;2.97;;;;;;;;;;5050131;28;20585;-82
2022/11/02 08:25:36;;;;;;;5.67;3.07;;;;;;;;;;5056227;28;20209;-82
2022/11/02 08:28:03;;;;;;;5.20;3.33;;;;;;;;;;5056798;28;20290;-82
2022/11/02 08:30:32;;;;;;;10.30;2.97;;;;;;;;;;5056524;28;20236;-82
2022/11/02 08:33:03;;;;;;;3.93;3.50;;;;;;;;;;5056921;28;20225;-82
2022/11/02 08:35:29;;;;;;;4.63;3.17;;;;;;;;;;5056644;28;20275;-82
2022/11/02 08:37:58;;;;;;;4.77;2.90;;;;;;;;;;5056702;28;20210;-83
2022/11/02 08:40:25;;;;;;;4.73;2.80;;;;;;;;;;5056814;28;20205;-82
2022/11/02 08:42:56;;;;;;;6.83;2.97;;;;;;;;;;5056844;28;20236;-82
2022/11/02 08:45:23;;;;;;;6.57;2.83;;;;;;;;;;5056840;28;20205;-82
2022/11/02 08:47:51;;;;;;;5.60;2.97;;;;;;;;;;5056472;28;20275;-82
2022/11/02 08:50:18;;;;;;;5.10;2.77;;;;;;;;;;5056782;28;20205;-82
2022/11/02 08:52:44;;;;;;;5.17;2.77;;;;;;;;;;5056744;28;20201;-82
2022/11/02 08:55:11;;;;;;;5.40;3.07;;;;;;;;;;5056384;28;20206;-82
2022/11/02 08:57:45;;;;;;;9.17;3.10;;;;;;;;;;5056935;28;20201;-82
2022/11/02 09:00:12;;;;;;;4.13;2.63;;;;;;;;;;5056671;28;20692;-82
2022/11/02 09:02:39;;;;;;;5.00;2.73;;;;;;;;;;5056842;28;20271;-82
2022/11/02 09:05:08;;;;;;;5.27;3.13;;;;;;;;;;5057025;28;20873;-82
2022/11/02 09:07:35;;;;;;;5.20;3.67;;;;;;;;;;5056685;28;20226;-82
2022/11/02 09:10:02;;;;;;;4.50;3.23;;;;;;;;;;5056861;28;20197;-82
2022/11/02 09:12:28;;;;;;;6.43;3.40;;;;;;;;;;5056794;28;20201;-81
2022/11/02 09:14:55;;;;;;;7.73;4.20;;;;;;;;;;5056230;28;20205;-81
2022/11/02 09:17:22;;;;;;;12.00;3.60;;;;;;;;;;5056347;28;20271;-82
2022/11/02 09:19:49;;;;;;;5.57;3.70;;;;;;;;;;5056652;28;20208;-82
2022/11/02 09:22:17;;;;;;;5.73;3.00;;;;;;;;;;5056454;28;20201;-82
2022/11/02 09:24:43;;;;;;;7.37;2.90;;;;;;;;;;5056663;28;20201;-82
2022/11/02 09:27:10;;;;;;;6.78;4.78;;;;;;;;;;5056570;28;20590;-81
2022/11/02 09:29:37;;;;;;;8.80;4.93;;;;;;;;;;5055829;28;20240;-82
2022/11/02 09:32:04;;;;;;;6.95;4.55;;;;;;;;;;5056139;28;20217;-82
2022/11/02 09:34:30;;;;;;;7.10;3.78;;;;;;;;;;5056673;28;20213;-81
2022/11/02 09:36:58;;;;;;;6.88;4.25;;;;;;;;;;5053646;28;20210;-81
2022/11/02 09:39:26;;;;;;;5.13;3.97;;;;;;;;;;5053267;28;20292;-81
2022/11/02 09:42:03;;;;;;;6.15;4.53;;;;;;;;;;5053117;28;20213;-81
2022/11/02 09:44:39;;;;;;;7.75;4.60;;;;;;;;;;5053367;28;20235;-82
2022/11/02 09:47:08;;;;;;;5.10;4.07;;;;;;;;;;5052863;28;20240;-82
2022/11/02 09:49:35;;;;;;;9.68;4.50;;;;;;;;;;5053116;28;20208;-82
2022/11/02 09:52:02;;;;;;;8.32;5.38;;;;;;;;;;5053141;28;20209;-81
2022/11/02 09:54:33;;;;;;;10.50;5.40;;;;;;;;;;5052829;28;20637;-82
2022/11/02 09:57:04;;;;;;;10.73;5.97;;;;;;;;;;5052997;28;20202;-82
2022/11/02 09:59:31;;;;;;;10.23;4.55;;;;;;;;;;5053250;28;20621;-82
2022/11/02 10:02:02;;;;;;;5.30;4.78;;;;;;;;;;5052442;28;20635;-82
2022/11/02 10:04:48;;;;;;;5.72;5.00;;;;;;;;;;5052643;28;20229;-82
2022/11/02 10:07:25;;;;;;;8.65;4.65;;;;;;;;;;5052747;28;20232;-82
2022/11/02 10:09:56;;;;;;;8.30;4.78;;;;;;;;;;5053097;28;20205;-82
2022/11/02 10:12:27;;;;;;;6.68;4.40;;;;;;;;;;5053145;28;20202;-82
2022/11/02 10:14:59;;;;;;;4.65;4.05;;;;;;;;;;5052299;28;20201;-82
2022/11/02 10:17:28;;;;;;;6.85;4.03;;;;;;;;;;5052275;28;20696;-82
2022/11/02 10:19:56;;;;;;;10.98;5.20;;;;;;;;;;5052214;28;20198;-83
2022/11/02 10:22:28;;;;;;;10.07;4.97;;;;;;;;;;5052507;28;20601;-82
2022/11/02 10:24:57;;;;;;;7.47;4.22;;;;;;;;;;5052841;28;20208;-82
2022/11/02 10:27:26;;;;;;;9.55;4.53;;;;;;;;;;5052537;28;20711;-82
2022/11/02 10:29:56;;;;;;;5.85;4.43;;;;;;;;;;5051404;28;20719;-82
2022/11/02 10:32:24;;;;;;;6.32;4.05;;;;;;;;;;5052106;28;20216;-83
2022/11/02 10:34:51;;;;;;;5.93;3.97;;;;;;;;;;5051934;28;20194;-83
2022/11/02 10:37:40;;;;;;;8.50;4.45;;;;;;;;;;5052283;28;20209;-83
2022/11/02 10:40:16;;;;;;;6.20;3.03;;;;;;;;;;5038965;28;20231;-82
2022/11/02 10:42:52;;;;;;;6.95;3.17;;;;;;;;;;5051873;28;20247;-82
2022/11/02 10:45:36;;;;;;;5.28;2.88;;;;;;;;;;5052015;28;20633;-83
2022/11/02 10:48:07;;;;;;;5.40;3.70;;;;;;;;;;5051502;28;20312;-82
2022/11/02 10:50:46;;;;;;;5.22;3.35;;;;;;;;;;5051658;28;20587;-83
2022/11/02 10:53:14;;;;;;;7.38;2.65;;;;;;;;;;5052649;28;20204;-82
2022/11/02 10:55:48;;;;;;;6.00;3.58;;;;;;;;;;5051584;28;20205;-83
2022/11/02 10:58:18;;;;;;;6.50;2.90;;;;;;;;;;5051570;28;20673;-83
2022/11/02 11:00:46;;;;;;;3.97;2.58;;;;;;;;;;5051589;28;20596;-83
2022/11/02 11:03:15;;;;;;;6.28;2.35;;;;;;;;;;5051856;28;20347;-83
2022/11/02 11:05:56;;;;;;;6.63;2.13;;;;;;;;;;5050998;28;20206;-84
2022/11/02 11:08:31;;;;;;;3.95;1.70;;;;;;;;;;5051809;28;20677;-83
2022/11/02 11:11:15;;;;;;;5.63;2.55;;;;;;;;;;5051421;28;20201;-83
2022/11/02 11:13:43;;;;;;;9.68;2.88;;;;;;;;;;5051818;28;20244;-83
2022/11/02 11:16:10;;;;;;;6.68;2.63;;;;;;;;;;5050987;28;20210;-84
2022/11/02 11:18:37;;;;;;;10.32;2.42;;;;;;;;;;5051755;28;20201;-83
2022/11/02 11:21:04;;;;;;;6.40;2.88;;;;;;;;;;5051477;28;20213;-83
2022/11/02 11:23:31;;;;;;;5.15;1.80;;;;;;;;;;5051444;28;20261;-83
2022/11/02 11:26:00;;;;;;;6.28;2.25;;;;;;;;;;5050738;28;21275;-84
2022/11/02 11:28:31;;;;;;;3.55;2.30;;;;;;;;;;5050890;28;20221;-83
2022/11/02 11:31:13;;;;;;;6.88;2.45;;;;;;;;;;5051321;28;20260;-83
2022/11/02 11:33:45;;;;;;;4.55;2.17;;;;;;;;;;5051243;28;20593;-84
2022/11/02 11:36:21;;;;;;;5.82;1.95;;;;;;;;;;5050769;28;20206;-83
2022/11/02 11:38:49;;;;;;;5.32;2.67;;;;;;;;;;5050950;28;20202;-83
2022/11/02 11:41:15;;;;;;;6.80;2.22;;;;;;;;;;5050962;28;20202;-84
2022/11/02 11:43:45;;;;;;;4.50;2.95;;;;;;;;;;5050701;28;20193;-83
2022/11/02 11:46:13;;;;;;;7.13;2.85;;;;;;;;;;5050916;28;20206;-83
2022/11/02 11:48:41;;;;;;;6.07;2.67;;;;;;;;;;5050920;28;20231;-83
2022/11/02 11:51:25;;;;;;;5.28;2.47;;;;;;;;;;5050738;28;20202;-83
2022/11/02 11:54:05;;;;;;;9.65;2.47;;;;;;;;;;5050622;28;20585;-83
2022/11/02 11:56:32;;;;;;;5.50;2.33;;;;;;;;;;5050648;28;20201;-83
2022/11/02 11:59:00;;;;;;;6.28;2.17;;;;;;;;;;5049850;28;20209;-82
2022/11/02 12:01:29;;;;;;;6.72;2.63;;;;;;;;;;5050468;28;20205;-83
2022/11/02 12:03:57;;;;;;;4.53;1.80;;;;;;;;;;5050390;28;20234;-85
2022/11/02 12:06:29;;;;;;;7.47;2.47;;;;;;;;;;5050293;28;20206;-83
2022/11/02 12:09:02;;;;;;;7.68;3.22;;;;;;;;;;5050803;28;20225;-84
2022/11/02 12:11:38;;;;;;;4.47;1.92;;;;;;;;;;5050658;28;20198;-84
2022/11/02 12:14:20;;;;;;;6.55;2.17;;;;;;;;;;5050286;28;20197;-83
2022/11/02 12:17:19;;;;;;;3.33;2.53;;;;;;;;;;5050579;28;20209;-84
2022/11/02 12:20:00;;;;;;;5.00;1.80;;;;;;;;;;5035941;28;20206;-84
2022/11/02 12:22:36;;;;;;;6.70;1.88;;;;;;;;;;5049866;28;20255;-83
2022/11/02 12:25:18;;;;;;;4.55;2.28;;;;;;;;;;5050087;28;20201;-85
2022/11/02 12:27:52;;;;;;;4.30;2.50;;;;;;;;;;5050470;28;20232;-83
2022/11/02 12:30:21;;;;;;;5.72;1.70;;;;;;;;;;5050001;28;20205;-83
2022/11/02 12:32:58;;;;;;;4.38;1.73;;;;;;;;;;5050808;28;20638;-84
2022/11/02 12:35:35;;;;;;;2.50;1.60;;;;;;;;;;5050640;28;20198;-83
2022/11/02 12:38:17;;;;;;;4.95;1.90;;;;;;;;;;5050596;28;20293;-83
2022/11/02 12:40:52;;;;;;;4.50;2.00;;;;;;;;;;5049874;28;20201;-83
2022/11/02 12:43:29;;;;;;;4.80;1.58;;;;;;;;;;5050066;28;20228;-83
2022/11/02 12:46:04;;;;;;;14.15;2.60;;;;;;;;;;5050134;28;20194;-84
2022/11/02 12:48:36;;;;;;;6.68;2.05;;;;;;;;;;5050059;28;20290;-83
2022/11/02 12:51:08;;;;;;;4.68;2.00;;;;;;;;;;5050188;28;20639;-83
2022/11/02 12:53:42;;;;;;;7.00;1.75;;;;;;;;;;5049835;28;20201;-86
2022/11/02 12:56:14;;;;;;;3.80;2.75;;;;;;;;;;5050086;28;20746;-84
2022/11/02 12:58:41;;;;;;;8.13;2.70;;;;;;;;;;5049664;28;20206;-84
2022/11/02 13:01:13;;;;;;;7.50;2.67;;;;;;;;;;5050065;28;20720;-83
2022/11/02 13:03:46;;;;;;;4.65;2.15;;;;;;;;;;5050378;28;20272;-85
2022/11/02 13:06:16;;;;;;;2.50;2.30;;;;;;;;;;5049779;28;20213;-83
2022/11/02 13:08:47;;;;;;;5.78;2.35;;;;;;;;;;5050165;28;20237;-82
2022/11/02 13:11:16;;;;;;;9.15;2.47;;;;;;;;;;5052164;28;20206;-84
2022/11/02 13:13:45;;;;;;;3.60;2.00;;;;;;;;;;5053956;28;20642;-83
2022/11/02 13:16:15;;;;;;;2.45;1.65;;;;;;;;;;5053965;28;20623;-82
2022/11/02 13:18:45;;;;;;;3.95;2.50;;;;;;;;;;5053926;28;20202;-84
2022/11/02 13:21:14;;;;;;;4.30;2.20;;;;;;;;;;5053207;28;20639;-83
2022/11/02 13:23:45;;;;;;;9.35;2.85;;;;;;;;;;5053853;28;20198;-82
2022/11/02 13:26:15;;;;;;;4.25;2.38;;;;;;;;;;5053568;28;20201;-83
2022/11/02 13:28:44;;;;;;;7.25;2.70;;;;;;;;;;5053353;28;20222;-84
2022/11/02 13:31:15;;;;;;;5.13;2.22;;;;;;;;;;5053315;28;20206;-85
2022/11/02 13:33:46;;;;;;;3.10;2.17;;;;;;;;;;5053437;28;20210;-83
2022/11/02 13:36:14;;;;;;;7.35;2.65;;;;;;;;;;5053130;28;20292;-84
2022/11/02 13:38:44;;;;;;;4.45;2.40;;;;;;;;;;5053467;28;20250;-84
2022/11/02 13:41:24;;;;;;;5.47;2.42;;;;;;;;;;5053467;28;20214;-84
2022/11/02 13:44:06;;;;;;;6.10;3.10;;;;;;;;;;5052836;28;20201;-83
2022/11/02 13:46:53;;;;;;;5.68;2.28;;;;;;;;;;5053083;28;20210;-82
2022/11/02 13:49:22;;;;;;;4.50;2.50;;;;;;;;;;5052677;28;20236;-85
2022/11/02 13:51:50;;;;;;;5.28;1.80;;;;;;;;;;5053195;28;21572;-84
2022/11/02 13:54:19;;;;;;;6.47;2.35;;;;;;;;;;5052502;28;20202;-83
2022/11/02 13:56:47;;;;;;;8.90;2.90;;;;;;;;;;5052737;28;20213;-84
2022/11/02 13:59:21;;;;;;;5.10;2.50;;;;;;;;;;5052879;28;20198;-84
2022/11/02 14:01:51;;;;;;;6.22;2.03;;;;;;;;;;5053016;28;20292;-83
2022/11/02 14:04:19;;;;;;;4.45;2.03;;;;;;;;;;5052868;28;20230;-83
2022/11/02 14:06:50;;;;;;;8.65;2.88;;;;;;;;;;5052634;28;20205;-83
2022/11/02 14:09:26;;;;;;;6.60;2.40;;;;;;;;;;5052700;28;20303;-83
2022/11/02 14:12:11;;;;;;;9.43;2.85;;;;;;;;;;5053093;28;20205;-82
2022/11/02 14:14:38;;;;;;;8.15;2.42;;;;;;;;;;5039785;28;20202;-85
2022/11/02 14:17:16;;;;;;;6.88;2.70;;;;;;;;;;5052417;28;20218;-82
2022/11/02 14:19:54;;;;;;;4.47;2.78;;;;;;;;;;5052405;28;20777;-83
2022/11/02 14:22:21;;;;;;;8.18;2.55;;;;;;;;;;5051578;28;20209;-82
2022/11/02 14:25:07;;;;;;;5.63;2.28;;;;;;;;;;5052509;28;20197;-82
2022/11/02 14:27:34;;;;;;;5.50;2.95;;;;;;;;;;5051983;28;20642;-82
2022/11/02 14:30:01;;;;;;;3.28;2.30;;;;;;;;;;5051681;28;20786;-82
2022/11/02 14:32:53;;;;;;;7.18;2.15;;;;;;;;;;5052534;28;20259;-82
2022/11/02 14:35:36;;;;;;;7.55;2.83;;;;;;;;;;5049421;28;20206;-83
2022/11/02 14:38:14;;;;;;;4.90;2.35;;;;;;;;;;5051720;28;20194;-82
2022/11/02 14:40:51;;;;;;;5.10;3.00;;;;;;;;;;5052063;28;20636;-82
2022/11/02 14:44:03;;;;;;;7.97;2.40;;;;;;;;;;5051760;28;20202;-83
2022/11/02 14:46:39;;;;;;;2.57;2.13;;;;;;;;;;5042535;28;20228;-82
2022/11/02 14:49:17;;;;;;;4.72;2.28;;;;;;;;;;5051778;28;20312;-82
2022/11/02 14:51:44;;;;;;;5.73;2.17;;;;;;;;;;5051698;28;20204;-82
2022/11/02 14:54:16;;;;;;;5.23;2.17;;;;;;;;;;5051772;28;20661;-82
2022/11/02 14:56:48;;;;;;;7.77;2.73;;;;;;;;;;5051503;28;20209;-82
2022/11/02 14:59:18;;;;;;;5.00;2.07;;;;;;;;;;5051950;28;20602;-82
2022/11/02 15:01:55;;;;;;;14.32;2.65;;;;;;;;;;5051982;28;20202;-82
2022/11/02 15:04:24;;;;;;;5.23;2.03;;;;;;;;;;5051025;28;20237;-82
2022/11/02 15:06:53;;;;;;;5.77;2.33;;;;;;;;;;5051785;28;20244;-82
2022/11/02 15:09:53;;;;;;;5.40;2.73;;;;;;;;;;5051292;28;20225;-81
2022/11/02 15:12:36;;;;;;;5.20;3.33;;;;;;;;;;5051104;28;20229;-82